createdAt,value
2023-04-28T00:00:43.927Z,46.73
2023-04-28T00:01:43.883Z,45.44
2023-04-28T00:02:43.968Z,46.08
2023-04-28T00:03:43.970Z,45.76
2023-04-28T00:04:44.007Z,46.25
2023-04-28T00:05:43.894Z,45.44
2023-04-28T00:06:43.822Z,48.18
2023-04-28T00:07:43.809Z,43.02
2023-04-28T00:08:43.802Z,42.54
2023-04-28T00:09:44.830Z,43.67
2023-04-28T00:10:43.796Z,47.21
2023-04-28T00:11:43.770Z,45.76
2023-04-28T00:12:43.776Z,43.02
2023-04-28T00:13:43.771Z,43.51
2023-04-28T00:14:43.758Z,45.92
2023-04-28T00:15:43.757Z,45.44
2023-04-28T00:16:43.889Z,44.31
2023-04-28T00:17:43.834Z,45.12
2023-04-28T00:18:43.754Z,42.38
2023-04-28T00:19:43.714Z,42.06
2023-04-28T00:20:43.720Z,43.18
2023-04-28T00:23:33.133Z,41.41
2023-04-28T00:24:33.121Z,46.25
2023-04-28T00:25:33.127Z,46.25
2023-04-28T00:26:34.187Z,50.60
2023-04-28T00:27:34.184Z,40.44
2023-04-28T00:28:35.103Z,41.25
2023-04-28T00:29:35.194Z,45.60
2023-04-28T00:30:34.181Z,44.79
2023-04-28T00:31:34.190Z,45.28
2023-04-28T00:32:34.153Z,42.70
2023-04-28T00:33:34.332Z,45.60
2023-04-28T00:34:34.126Z,43.67
2023-04-28T00:35:34.116Z,48.18
2023-04-28T00:36:34.118Z,44.15
2023-04-28T00:37:34.101Z,45.12
2023-04-28T00:38:35.076Z,44.63
2023-04-28T00:39:34.085Z,41.73
2023-04-28T00:40:34.099Z,43.51
2023-04-28T00:41:34.083Z,43.34
2023-04-28T00:42:35.068Z,49.79
2023-04-28T00:43:34.091Z,43.67
2023-04-28T00:44:34.046Z,44.63
2023-04-28T00:45:34.125Z,44.31
2023-04-28T00:46:34.033Z,50.43
2023-04-28T00:47:34.044Z,42.86
2023-04-28T00:48:34.018Z,42.06
2023-04-28T00:49:34.017Z,44.63
2023-04-28T00:50:34.003Z,51.24
2023-04-28T00:51:34.040Z,44.31
2023-04-28T00:52:33.981Z,43.67
2023-04-28T00:53:33.980Z,45.12
2023-04-28T00:54:33.978Z,56.24
2023-04-28T00:55:33.963Z,48.02
2023-04-28T00:56:33.970Z,43.99
2023-04-28T00:57:33.962Z,44.15
2023-04-28T00:58:33.933Z,48.34
2023-04-28T00:59:33.946Z,49.95
2023-04-28T01:00:33.937Z,42.22
2023-04-28T01:01:33.964Z,42.54
2023-04-28T01:02:34.053Z,42.86
2023-04-28T01:03:34.086Z,55.91
2023-04-28T01:04:34.635Z,43.51
2023-04-28T01:05:33.893Z,43.02
2023-04-28T01:06:33.873Z,43.83
2023-04-28T01:07:33.856Z,43.18
2023-04-28T01:08:33.851Z,43.99
2023-04-28T01:09:33.839Z,47.53
2023-04-28T01:10:33.849Z,45.92
2023-04-28T01:11:33.847Z,45.28
2023-04-28T01:12:33.826Z,48.82
2023-04-28T01:13:33.818Z,44.15
2023-04-28T01:14:33.811Z,44.96
2023-04-28T01:15:33.800Z,45.44
2023-04-28T01:16:33.879Z,50.92
2023-04-28T01:17:33.812Z,43.18
2023-04-28T01:18:33.850Z,42.22
2023-04-28T01:19:33.762Z,42.86
2023-04-28T01:20:34.754Z,47.21
2023-04-28T01:21:33.766Z,44.15
2023-04-28T01:22:33.739Z,42.06
2023-04-28T01:23:33.764Z,42.54
2023-04-28T01:24:33.739Z,42.54
2023-04-28T01:25:33.711Z,44.47
2023-04-28T01:26:33.728Z,44.79
2023-04-28T01:27:33.720Z,44.79
2023-04-28T01:28:33.688Z,46.57
2023-04-28T01:29:33.690Z,45.44
2023-04-28T01:30:33.686Z,50.92
2023-04-28T01:31:33.687Z,45.92
2023-04-28T01:32:33.735Z,42.70
2023-04-28T01:33:33.691Z,42.38
2023-04-28T01:34:33.645Z,46.08
2023-04-28T01:35:33.629Z,43.83
2023-04-28T01:36:35.941Z,43.99
2023-04-28T01:37:33.629Z,48.34
2023-04-28T01:38:33.604Z,43.99
2023-04-28T01:39:33.621Z,43.67
2023-04-28T01:40:33.615Z,43.99
2023-04-28T01:41:33.588Z,49.15
2023-04-28T01:42:33.575Z,44.15
2023-04-28T01:43:33.571Z,51.40
2023-04-28T01:44:33.589Z,43.02
2023-04-28T01:45:33.554Z,43.67
2023-04-28T01:46:33.717Z,43.51
2023-04-28T01:47:33.544Z,44.63
2023-04-28T01:48:33.532Z,44.96
2023-04-28T01:49:33.526Z,49.31
2023-04-28T01:50:33.528Z,55.43
2023-04-28T01:51:33.509Z,44.63
2023-04-28T01:52:33.492Z,49.95
2023-04-28T01:53:33.498Z,50.76
2023-04-28T01:54:33.509Z,47.37
2023-04-28T01:55:34.518Z,48.82
2023-04-28T01:56:33.482Z,47.05
2023-04-28T01:57:33.463Z,45.92
2023-04-28T01:58:33.463Z,47.70
2023-04-28T01:59:33.456Z,48.50
2023-04-28T02:00:33.445Z,45.28
2023-04-28T02:01:33.449Z,48.50
2023-04-28T02:02:33.587Z,46.57
2023-04-28T02:03:33.566Z,43.02
2023-04-28T02:04:33.468Z,43.34
2023-04-28T02:05:33.432Z,43.99
2023-04-28T02:06:33.391Z,43.67
2023-04-28T02:07:33.381Z,44.31
2023-04-28T02:08:33.385Z,49.79
2023-04-28T02:09:33.373Z,47.05
2023-04-28T02:10:33.396Z,48.18
2023-04-28T02:11:33.403Z,49.31
2023-04-28T02:12:33.340Z,48.18
2023-04-28T02:13:33.339Z,44.31
2023-04-28T02:14:33.330Z,44.15
2023-04-28T02:15:33.321Z,51.56
2023-04-28T02:16:33.395Z,43.83
2023-04-28T02:17:33.342Z,48.98
2023-04-28T02:18:33.309Z,49.95
2023-04-28T02:19:33.281Z,46.73
2023-04-28T02:20:33.476Z,44.79
2023-04-28T02:21:34.288Z,46.57
2023-04-28T02:22:33.256Z,50.92
2023-04-28T02:23:33.270Z,44.79
2023-04-28T02:24:33.256Z,48.02
2023-04-28T02:25:33.267Z,48.02
2023-04-28T02:26:33.232Z,49.63
2023-04-28T02:27:33.225Z,47.70
2023-04-28T02:28:33.226Z,48.98
2023-04-28T02:29:33.204Z,45.92
2023-04-28T02:30:33.208Z,49.47
2023-04-28T02:31:33.284Z,45.60
2023-04-28T02:32:33.225Z,49.95
2023-04-28T02:33:33.174Z,47.05
2023-04-28T02:34:33.160Z,48.18
2023-04-28T02:35:34.207Z,50.76
2023-04-28T02:36:33.152Z,50.11
2023-04-28T02:37:33.146Z,48.50
2023-04-28T02:38:33.173Z,53.98
2023-04-28T02:39:33.127Z,47.70
2023-04-28T02:40:33.115Z,49.63
2023-04-28T02:41:33.114Z,49.31
2023-04-28T02:42:33.099Z,47.53
2023-04-28T02:43:33.150Z,57.20
2023-04-28T02:44:33.094Z,49.95
2023-04-28T02:45:34.025Z,52.85
2023-04-28T02:46:33.147Z,49.31
2023-04-28T02:47:34.059Z,48.98
2023-04-28T02:48:33.059Z,46.41
2023-04-28T02:49:33.058Z,46.73
2023-04-28T02:50:33.036Z,50.92
2023-04-28T02:51:33.025Z,53.82
2023-04-28T02:52:33.034Z,48.34
2023-04-28T02:53:33.009Z,47.53
2023-04-28T02:54:33.009Z,45.44
2023-04-28T02:55:33.036Z,53.01
2023-04-28T02:56:33.006Z,50.27
2023-04-28T02:57:33.015Z,50.11
2023-04-28T02:58:32.980Z,48.18
2023-04-28T02:59:32.973Z,53.17
2023-04-28T03:00:32.957Z,52.05
2023-04-28T03:01:32.988Z,50.11
2023-04-28T03:02:33.089Z,49.79
2023-04-28T03:03:33.187Z,53.98
2023-04-28T03:04:33.074Z,49.47
2023-04-28T03:05:32.921Z,51.88
2023-04-28T03:06:32.916Z,47.37
2023-04-28T03:07:32.935Z,48.02
2023-04-28T03:08:32.901Z,56.88
2023-04-28T03:09:32.933Z,57.04
2023-04-28T03:10:32.881Z,61.23
2023-04-28T03:11:32.868Z,55.91
2023-04-28T03:12:32.854Z,53.82
2023-04-28T03:13:32.872Z,53.17
2023-04-28T03:14:32.879Z,58.97
2023-04-28T03:15:32.834Z,53.01
2023-04-28T03:16:32.912Z,51.88
2023-04-28T03:17:32.863Z,55.27
2023-04-28T03:18:33.597Z,58.49
2023-04-28T03:19:32.825Z,57.36
2023-04-28T03:20:33.796Z,57.52
2023-04-28T03:21:32.805Z,52.37
2023-04-28T03:22:32.799Z,53.50
2023-04-28T03:23:32.810Z,60.26
2023-04-28T03:24:32.758Z,60.10
2023-04-28T03:25:32.765Z,58.49
2023-04-28T03:26:32.765Z,56.24
2023-04-28T03:27:32.744Z,56.40
2023-04-28T03:28:33.523Z,52.69
2023-04-28T03:29:32.733Z,52.37
2023-04-28T03:30:32.709Z,59.78
2023-04-28T03:31:32.790Z,54.46
2023-04-28T03:32:32.703Z,53.50
2023-04-28T03:33:32.693Z,52.69
2023-04-28T03:34:32.681Z,56.56
2023-04-28T03:35:32.670Z,54.79
2023-04-28T03:36:32.680Z,59.94
2023-04-28T03:37:32.655Z,59.46
2023-04-28T03:38:32.661Z,60.26
2023-04-28T03:39:32.679Z,58.97
2023-04-28T03:40:32.639Z,54.14
2023-04-28T03:41:32.624Z,59.14
2023-04-28T03:42:32.612Z,57.20
2023-04-28T03:43:33.622Z,58.65
2023-04-28T03:44:34.598Z,55.27
2023-04-28T03:45:32.812Z,60.10
2023-04-28T03:46:32.589Z,53.98
2023-04-28T03:47:32.578Z,57.52
2023-04-28T03:48:32.584Z,57.36
2023-04-28T03:49:32.565Z,59.94
2023-04-28T03:50:32.558Z,52.05
2023-04-28T03:51:32.561Z,52.69
2023-04-28T03:52:32.581Z,55.91
2023-04-28T03:53:32.567Z,60.91
2023-04-28T03:54:32.524Z,58.81
2023-04-28T03:55:32.522Z,60.10
2023-04-28T03:56:32.510Z,57.20
2023-04-28T03:57:32.518Z,56.88
2023-04-28T03:58:32.498Z,59.62
2023-04-28T03:59:32.527Z,59.30
2023-04-28T04:00:32.510Z,58.81
2023-04-28T04:01:35.542Z,53.82
2023-04-28T04:02:32.584Z,58.33
2023-04-28T04:03:32.620Z,57.85
2023-04-28T04:04:32.803Z,61.55
2023-04-28T04:05:32.463Z,59.30
2023-04-28T04:06:32.434Z,63.33
2023-04-28T04:07:32.423Z,59.46
2023-04-28T04:08:32.409Z,55.75
2023-04-28T04:09:32.408Z,53.50
2023-04-28T04:10:32.454Z,49.31
2023-04-28T04:11:32.402Z,54.62
2023-04-28T04:12:32.392Z,56.88
2023-04-28T04:13:32.390Z,64.61
2023-04-28T04:14:32.397Z,58.17
2023-04-28T04:15:32.535Z,59.78
2023-04-28T04:16:32.413Z,57.20
2023-04-28T04:17:32.383Z,54.62
2023-04-28T04:18:32.334Z,60.42
2023-04-28T04:19:32.334Z,60.59
2023-04-28T04:20:32.410Z,56.07
2023-04-28T04:21:32.308Z,56.72
2023-04-28T04:22:32.305Z,56.56
2023-04-28T04:23:32.313Z,60.26
2023-04-28T04:24:32.307Z,60.59
2023-04-28T04:25:32.309Z,58.49
2023-04-28T04:26:32.300Z,61.55
2023-04-28T04:27:32.287Z,62.04
2023-04-28T04:28:32.251Z,59.78
2023-04-28T04:29:32.241Z,57.36
2023-04-28T04:30:32.269Z,58.33
2023-04-28T04:31:32.279Z,57.85
2023-04-28T04:32:32.227Z,60.91
2023-04-28T04:33:34.047Z,60.10
2023-04-28T04:34:32.271Z,58.01
2023-04-28T04:35:33.201Z,60.59
2023-04-28T04:36:32.228Z,62.84
2023-04-28T04:37:32.185Z,63.00
2023-04-28T04:38:33.188Z,60.26
2023-04-28T04:39:32.167Z,58.97
2023-04-28T04:40:34.109Z,60.10
2023-04-28T04:41:33.159Z,61.39
2023-04-28T04:42:32.174Z,61.39
2023-04-28T04:43:32.133Z,56.24
2023-04-28T04:44:33.126Z,60.75
2023-04-28T04:45:32.136Z,62.20
2023-04-28T04:46:32.150Z,58.97
2023-04-28T04:47:32.168Z,65.26
2023-04-28T04:48:32.094Z,63.97
2023-04-28T04:49:32.090Z,62.52
2023-04-28T04:50:32.613Z,65.42
2023-04-28T04:51:32.106Z,64.13
2023-04-28T04:52:40.783Z,61.55
2023-04-28T04:53:33.990Z,62.84
2023-04-28T04:56:21.970Z,62.20
2023-04-28T04:57:23.876Z,60.75
2023-04-28T04:59:23.050Z,60.75
2023-04-28T05:00:23.068Z,65.58
2023-04-28T05:01:23.091Z,58.33
2023-04-28T05:02:23.151Z,62.52
2023-04-28T05:03:23.058Z,62.68
2023-04-28T05:04:23.272Z,62.52
2023-04-28T05:05:23.382Z,66.55
2023-04-28T05:06:23.010Z,63.49
2023-04-28T05:07:22.990Z,64.61
2023-04-28T05:08:22.999Z,62.20
2023-04-28T05:09:22.965Z,60.26
2023-04-28T05:10:22.977Z,58.49
2023-04-28T05:11:22.964Z,64.78
2023-04-28T05:12:22.944Z,65.26
2023-04-28T05:13:22.938Z,64.29
2023-04-28T05:14:22.944Z,67.19
2023-04-28T05:15:22.931Z,65.10
2023-04-28T05:16:23.014Z,62.52
2023-04-28T05:17:22.899Z,63.33
2023-04-28T05:18:22.910Z,63.33
2023-04-28T05:19:23.498Z,65.74
2023-04-28T05:20:22.920Z,66.71
2023-04-28T05:21:22.894Z,65.10
2023-04-28T05:22:25.984Z,59.46
2023-04-28T05:23:24.335Z,64.61
2023-04-28T05:24:22.848Z,65.26
2023-04-28T05:25:22.823Z,65.42
2023-04-28T05:26:23.346Z,66.39
2023-04-28T05:27:22.811Z,63.00
2023-04-28T05:28:22.807Z,64.61
2023-04-28T05:29:22.812Z,63.81
2023-04-28T05:30:24.443Z,67.19
2023-04-28T05:31:22.839Z,68.16
2023-04-28T05:32:23.129Z,68.64
2023-04-28T05:33:22.789Z,67.68
2023-04-28T05:34:22.788Z,67.68
2023-04-28T05:35:22.754Z,65.90
2023-04-28T05:36:22.770Z,66.55
2023-04-28T05:37:22.735Z,66.06
2023-04-28T05:38:23.474Z,62.04
2023-04-28T05:39:24.346Z,64.78
2023-04-28T05:40:22.714Z,64.94
2023-04-28T05:41:22.704Z,64.61
2023-04-28T05:42:22.705Z,66.87
2023-04-28T05:43:22.700Z,65.90
2023-04-28T05:44:22.679Z,65.58
2023-04-28T05:45:22.676Z,63.16
2023-04-28T05:47:24.714Z,64.61
2023-04-28T05:48:22.662Z,62.36
2023-04-28T05:49:22.634Z,65.42
2023-04-28T05:50:22.635Z,66.39
2023-04-28T05:51:22.635Z,65.90
2023-04-28T05:52:22.611Z,63.16
2023-04-28T05:53:22.618Z,65.74
2023-04-28T05:54:22.636Z,62.04
2023-04-28T05:55:22.587Z,65.90
2023-04-28T05:56:22.589Z,65.26
2023-04-28T05:57:22.580Z,62.84
2023-04-28T05:58:22.574Z,63.65
2023-04-28T05:59:22.568Z,65.74
2023-04-28T06:00:22.580Z,65.90
2023-04-28T06:01:22.554Z,64.45
2023-04-28T06:02:23.659Z,63.97
2023-04-28T06:03:23.713Z,65.10
2023-04-28T06:04:24.109Z,64.61
2023-04-28T06:05:22.894Z,65.90
2023-04-28T06:06:22.721Z,66.39
2023-04-28T06:07:23.504Z,67.68
2023-04-28T06:08:22.957Z,67.68
2023-04-28T06:09:22.500Z,61.87
2023-04-28T06:10:22.514Z,59.62
2023-04-28T06:11:22.702Z,60.59
2023-04-28T06:12:22.486Z,62.36
2023-04-28T06:13:23.358Z,65.26
2023-04-28T06:14:22.459Z,60.75
2023-04-28T06:15:22.441Z,66.55
2023-04-28T06:16:22.483Z,62.20
2023-04-28T06:17:22.517Z,66.06
2023-04-28T06:18:22.412Z,64.29
2023-04-28T06:19:22.410Z,60.91
2023-04-28T06:20:22.411Z,68.00
2023-04-28T06:21:22.392Z,63.33
2023-04-28T06:22:22.404Z,58.01
2023-04-28T06:23:22.376Z,67.35
2023-04-28T06:24:22.374Z,65.90
2023-04-28T06:25:22.449Z,62.68
2023-04-28T06:26:22.386Z,60.59
2023-04-28T06:27:22.343Z,62.20
2023-04-28T06:28:22.351Z,61.39
2023-04-28T06:29:22.322Z,66.23
2023-04-28T06:30:22.333Z,65.42
2023-04-28T06:31:22.924Z,61.55
2023-04-28T06:32:22.335Z,65.10
2023-04-28T06:33:22.288Z,61.23
2023-04-28T06:34:22.292Z,61.71
2023-04-28T06:35:22.295Z,63.81
2023-04-28T06:36:22.255Z,63.97
2023-04-28T06:37:23.259Z,65.26
2023-04-28T06:38:22.253Z,65.10
2023-04-28T06:39:22.243Z,62.84
2023-04-28T06:40:22.234Z,60.26
2023-04-28T06:41:22.342Z,62.04
2023-04-28T06:42:22.232Z,60.75
2023-04-28T06:43:22.227Z,65.10
2023-04-28T06:44:22.202Z,64.45
2023-04-28T06:45:22.206Z,63.97
2023-04-28T06:46:22.271Z,60.42
2023-04-28T06:47:22.194Z,65.42
2023-04-28T06:48:22.177Z,65.10
2023-04-28T06:49:22.200Z,61.55
2023-04-28T06:50:22.183Z,63.65
2023-04-28T06:51:22.154Z,62.52
2023-04-28T06:52:32.892Z,60.91
2023-04-28T06:53:23.173Z,63.00
2023-04-28T06:54:22.940Z,64.94
2023-04-28T06:55:22.149Z,65.74
2023-04-28T06:56:22.105Z,62.84
2023-04-28T06:59:30.813Z,64.94
2023-04-28T07:00:30.836Z,64.94
2023-04-28T07:01:30.794Z,67.35
2023-04-28T07:02:30.870Z,65.58
2023-04-28T07:03:30.854Z,63.97
2023-04-28T07:04:30.803Z,64.45
2023-04-28T07:05:30.772Z,63.49
2023-04-28T07:06:30.869Z,63.33
2023-04-28T07:07:30.748Z,67.35
2023-04-28T07:08:30.764Z,59.46
2023-04-28T07:09:31.530Z,59.62
2023-04-28T07:10:30.722Z,62.84
2023-04-28T07:11:31.805Z,62.52
2023-04-28T07:12:31.819Z,62.84
2023-04-28T07:13:31.809Z,61.39
2023-04-28T07:14:31.792Z,62.20
2023-04-28T07:15:31.770Z,65.58
2023-04-28T07:16:31.837Z,62.20
2023-04-28T07:17:31.803Z,64.61
2023-04-28T07:18:31.765Z,59.30
2023-04-28T07:19:31.739Z,64.94
2023-04-28T07:20:31.742Z,64.45
2023-04-28T07:21:31.725Z,62.84
2023-04-28T07:22:31.732Z,62.20
2023-04-28T07:23:31.724Z,66.23
2023-04-28T07:24:31.706Z,64.94
2023-04-28T07:25:31.716Z,64.45
2023-04-28T07:26:31.682Z,64.45
2023-04-28T07:27:31.684Z,63.65
2023-04-28T07:28:31.667Z,63.00
2023-04-28T07:29:32.175Z,66.39
2023-04-28T07:30:31.951Z,64.94
2023-04-28T07:31:32.259Z,67.84
2023-04-28T07:32:31.651Z,65.90
2023-04-28T07:33:33.260Z,68.32
2023-04-28T07:34:31.626Z,68.16
2023-04-28T07:35:31.614Z,62.52
2023-04-28T07:36:31.600Z,65.74
2023-04-28T07:37:32.566Z,65.90
2023-04-28T07:38:31.583Z,66.87
2023-04-28T07:39:31.603Z,66.23
2023-04-28T07:40:31.568Z,65.74
2023-04-28T07:41:31.560Z,68.48
2023-04-28T07:42:31.544Z,64.13
2023-04-28T07:43:31.533Z,66.23
2023-04-28T07:44:31.554Z,64.61
2023-04-28T07:45:31.591Z,63.65
2023-04-28T07:46:31.581Z,64.13
2023-04-28T07:47:31.519Z,66.87
2023-04-28T07:48:31.501Z,65.74
2023-04-28T07:49:31.484Z,66.71
2023-04-28T07:50:32.481Z,65.74
2023-04-28T07:51:31.489Z,67.35
2023-04-28T07:54:38.320Z,64.13
2023-04-28T07:55:39.158Z,63.97
2023-04-28T07:56:38.339Z,65.58
2023-04-28T07:57:39.303Z,63.00
2023-04-28T07:58:38.286Z,62.84
2023-04-28T07:59:38.278Z,64.45
2023-04-28T08:00:41.037Z,63.16
2023-04-28T08:01:40.388Z,67.35
2023-04-28T08:02:39.527Z,67.19
2023-04-28T08:03:39.631Z,66.87
2023-04-28T08:04:39.455Z,65.10
2023-04-28T08:05:39.347Z,66.87
2023-04-28T08:06:39.325Z,65.90
2023-04-28T08:07:39.323Z,62.68
2023-04-28T08:08:42.240Z,65.10
2023-04-28T08:09:40.118Z,64.94
2023-04-28T08:10:39.281Z,62.84
2023-04-28T08:11:39.274Z,64.94
2023-04-28T08:12:39.258Z,63.81
2023-04-28T08:13:39.250Z,64.94
2023-04-28T08:14:39.249Z,65.42
2023-04-28T08:15:39.278Z,64.29
2023-04-28T08:16:39.237Z,64.78
2023-04-28T08:17:41.252Z,63.00
2023-04-28T08:18:39.264Z,65.10
2023-04-28T08:19:39.228Z,63.81
2023-04-28T08:20:39.203Z,63.97
2023-04-28T08:21:39.201Z,66.39
2023-04-28T08:22:39.191Z,65.10
2023-04-28T08:23:39.170Z,64.13
2023-04-28T08:24:39.154Z,61.55
2023-04-28T08:25:40.154Z,64.78
2023-04-28T08:26:39.165Z,60.91
2023-04-28T08:27:39.132Z,65.58
2023-04-28T08:28:39.195Z,64.13
2023-04-28T08:29:39.679Z,67.19
2023-04-28T08:30:39.163Z,65.10
2023-04-28T08:31:39.141Z,65.74
2023-04-28T08:32:39.133Z,64.78
2023-04-28T08:33:39.109Z,68.00
2023-04-28T08:34:39.072Z,65.42
2023-04-28T08:35:39.091Z,65.10
2023-04-28T08:36:39.077Z,64.78
2023-04-28T08:37:39.063Z,66.71
2023-04-28T08:38:40.755Z,66.87
2023-04-28T08:39:39.048Z,65.90
2023-04-28T08:40:39.025Z,65.42
2023-04-28T08:41:39.129Z,66.55
2023-04-28T08:42:39.004Z,65.58
2023-04-28T08:43:39.013Z,64.29
2023-04-28T08:44:39.010Z,62.36
2023-04-28T08:45:39.025Z,63.49
2023-04-28T08:46:39.071Z,63.16
2023-04-28T08:47:38.984Z,62.68
2023-04-28T08:48:38.968Z,60.75
2023-04-28T08:49:40.687Z,65.42
2023-04-28T08:50:38.950Z,60.26
2023-04-28T08:51:40.860Z,61.07
2023-04-28T08:52:39.949Z,60.59
2023-04-28T08:53:59.496Z,64.94
2023-04-28T08:54:40.914Z,63.49
2023-04-28T08:55:38.895Z,63.49
2023-04-28T08:56:38.933Z,65.10
2023-04-28T08:57:39.428Z,63.65
2023-04-28T08:58:38.914Z,61.39
2023-04-28T08:59:38.879Z,63.00
2023-04-28T09:00:38.863Z,61.39
2023-04-28T09:03:46.722Z,62.04
2023-04-28T09:04:47.893Z,64.29
2023-04-28T09:05:47.782Z,62.68
2023-04-28T09:06:47.671Z,63.81
2023-04-28T09:07:47.683Z,64.78
2023-04-28T09:08:49.549Z,63.16
2023-04-28T09:09:47.670Z,64.13
2023-04-28T09:10:47.645Z,63.65
2023-04-28T09:11:47.632Z,63.49
2023-04-28T09:12:47.634Z,63.49
2023-04-28T09:13:50.470Z,65.26
2023-04-28T09:14:47.616Z,63.49
2023-04-28T09:15:47.604Z,65.74
2023-04-28T09:16:47.699Z,65.26
2023-04-28T09:17:47.618Z,62.52
2023-04-28T09:18:47.568Z,62.52
2023-04-28T09:19:47.581Z,61.39
2023-04-28T09:20:47.559Z,62.04
2023-04-28T09:21:47.549Z,63.65
2023-04-28T09:22:47.572Z,63.81
2023-04-28T09:23:47.563Z,62.84
2023-04-28T09:24:48.544Z,62.36
2023-04-28T09:25:47.517Z,60.59
2023-04-28T09:26:47.507Z,64.45
2023-04-28T09:27:47.505Z,61.87
2023-04-28T09:28:47.503Z,62.04
2023-04-28T09:29:47.512Z,65.10
2023-04-28T09:30:47.503Z,64.78
2023-04-28T09:31:47.518Z,64.94
2023-04-28T09:32:47.557Z,64.29
2023-04-28T09:33:50.038Z,63.81
2023-04-28T09:34:47.488Z,64.45
2023-04-28T09:35:47.454Z,60.26
2023-04-28T09:36:47.459Z,66.06
2023-04-28T09:37:47.436Z,65.10
2023-04-28T09:38:47.442Z,61.71
2023-04-28T09:39:47.435Z,65.10
2023-04-28T09:40:47.418Z,62.84
2023-04-28T09:41:48.055Z,64.13
2023-04-28T09:42:47.991Z,63.00
2023-04-28T09:43:47.384Z,58.97
2023-04-28T09:44:47.391Z,65.42
2023-04-28T09:45:47.444Z,63.97
2023-04-28T09:46:47.424Z,65.10
2023-04-28T09:47:47.558Z,66.55
2023-04-28T09:48:48.368Z,64.78
2023-04-28T09:49:47.354Z,61.55
2023-04-28T09:50:47.359Z,63.97
2023-04-28T09:51:47.355Z,60.91
2023-04-28T09:52:47.343Z,63.65
2023-04-28T09:53:47.323Z,61.87
2023-04-28T09:54:47.329Z,61.87
2023-04-28T09:55:47.332Z,63.00
2023-04-28T09:58:35.207Z,62.52
2023-04-28T09:59:35.170Z,62.36
2023-04-28T10:00:36.039Z,63.65
2023-04-28T10:01:36.268Z,60.75
2023-04-28T10:03:37.306Z,64.78
2023-04-28T10:04:36.330Z,64.61
2023-04-28T10:05:36.333Z,64.29
2023-04-28T10:06:36.225Z,64.94
2023-04-28T10:07:36.239Z,61.71
2023-04-28T10:08:36.196Z,61.23
2023-04-28T10:09:36.239Z,64.61
2023-04-28T10:10:36.216Z,65.26
2023-04-28T10:11:36.184Z,63.97
2023-04-28T10:12:36.231Z,64.45
2023-04-28T10:13:36.153Z,63.65
2023-04-28T10:14:37.051Z,65.42
2023-04-28T10:15:36.184Z,63.97
2023-04-28T10:16:37.045Z,61.87
2023-04-28T10:17:36.203Z,61.55
2023-04-28T10:18:36.108Z,63.16
2023-04-28T10:19:37.075Z,63.97
2023-04-28T10:20:36.158Z,65.10
2023-04-28T10:21:36.113Z,62.04
2023-04-28T10:22:36.082Z,64.29
2023-04-28T10:23:36.093Z,63.97
2023-04-28T10:24:37.652Z,63.00
2023-04-28T10:25:36.056Z,66.87
2023-04-28T10:26:36.062Z,66.06
2023-04-28T10:27:36.073Z,64.78
2023-04-28T10:28:36.022Z,66.39
2023-04-28T10:29:36.047Z,63.81
2023-04-28T10:30:37.590Z,67.35
2023-04-28T10:31:36.664Z,66.55
2023-04-28T10:32:37.665Z,66.23
2023-04-28T10:33:36.994Z,66.87
2023-04-28T10:34:36.026Z,64.94
2023-04-28T10:35:36.005Z,64.29
2023-04-28T10:36:36.611Z,64.61
2023-04-28T10:37:36.979Z,68.32
2023-04-28T10:38:35.970Z,65.42
2023-04-28T10:39:35.980Z,64.94
2023-04-28T10:40:35.987Z,65.26
2023-04-28T10:41:37.578Z,65.74
2023-04-28T10:42:35.937Z,66.87
2023-04-28T10:43:35.919Z,65.26
2023-04-28T10:44:35.902Z,65.42
2023-04-28T10:45:36.683Z,64.13
2023-04-28T10:46:35.924Z,66.71
2023-04-28T10:47:36.663Z,66.06
2023-04-28T10:48:35.898Z,64.61
2023-04-28T10:49:35.882Z,65.74
2023-04-28T10:50:39.090Z,65.10
2023-04-28T10:51:36.885Z,65.58
2023-04-28T10:52:35.852Z,63.49
2023-04-28T10:53:35.871Z,66.87
2023-04-28T10:54:35.845Z,65.74
2023-04-28T10:55:35.817Z,63.81
2023-04-28T10:56:36.873Z,67.51
2023-04-28T10:57:36.566Z,66.39
2023-04-28T10:58:49.640Z,64.78
2023-04-28T10:59:36.882Z,66.06
2023-04-28T11:00:35.780Z,66.06
2023-04-28T11:01:35.834Z,64.13
2023-04-28T11:02:35.917Z,65.26
2023-04-28T11:03:35.950Z,66.39
2023-04-28T11:04:37.179Z,65.42
2023-04-28T11:05:35.789Z,65.42
2023-04-28T11:06:35.767Z,65.10
2023-04-28T11:07:35.713Z,63.49
2023-04-28T11:08:35.741Z,63.81
2023-04-28T11:09:35.701Z,61.39
2023-04-28T11:10:35.709Z,61.39
2023-04-28T11:11:35.694Z,64.29
2023-04-28T11:12:35.681Z,64.78
2023-04-28T11:13:36.572Z,63.65
2023-04-28T11:14:36.669Z,65.42
2023-04-28T11:15:35.654Z,63.65
2023-04-28T11:16:35.703Z,62.04
2023-04-28T11:17:35.645Z,62.20
2023-04-28T11:18:35.650Z,63.33
2023-04-28T11:19:35.620Z,63.00
2023-04-28T11:20:35.608Z,64.78
2023-04-28T11:21:35.641Z,65.26
2023-04-28T11:22:36.148Z,63.81
2023-04-28T11:23:37.138Z,63.16
2023-04-28T11:24:37.592Z,62.84
2023-04-28T11:25:35.578Z,61.07
2023-04-28T11:26:37.086Z,61.55
2023-04-28T11:27:35.560Z,60.91
2023-04-28T11:28:35.564Z,62.04
2023-04-28T11:29:35.535Z,58.97
2023-04-28T11:30:35.580Z,62.36
2023-04-28T11:31:35.576Z,61.07
2023-04-28T11:32:37.202Z,58.49
2023-04-28T11:33:35.515Z,58.01
2023-04-28T11:34:35.515Z,59.62
2023-04-28T11:35:38.180Z,62.04
2023-04-28T11:36:36.513Z,60.75
2023-04-28T11:37:37.204Z,59.46
2023-04-28T11:38:35.481Z,61.39
2023-04-28T11:39:35.466Z,59.30
2023-04-28T11:40:35.562Z,58.17
2023-04-28T11:41:37.166Z,59.46
2023-04-28T11:42:35.437Z,62.52
2023-04-28T11:43:46.532Z,60.42
2023-04-28T11:44:39.166Z,60.26
2023-04-28T11:45:35.487Z,62.36
2023-04-28T11:46:35.407Z,62.68
2023-04-28T11:47:35.423Z,60.59
2023-04-28T11:48:35.387Z,61.55
2023-04-28T11:49:37.111Z,63.81
2023-04-28T11:50:35.389Z,59.94
2023-04-28T11:51:35.382Z,60.75
2023-04-28T11:52:35.353Z,62.52
2023-04-28T11:53:35.362Z,60.75
2023-04-28T11:54:35.344Z,61.23
2023-04-28T11:55:36.991Z,60.10
2023-04-28T11:56:35.336Z,65.10
2023-04-28T11:57:35.313Z,62.20
2023-04-28T11:58:36.078Z,62.52
2023-04-28T11:59:35.299Z,62.36
2023-04-28T12:00:35.398Z,62.68
2023-04-28T12:01:35.304Z,59.78
2023-04-28T12:02:35.388Z,62.04
2023-04-28T12:03:35.398Z,59.94
2023-04-28T12:04:35.275Z,61.71
2023-04-28T12:05:36.833Z,65.26
2023-04-28T12:06:35.249Z,61.23
2023-04-28T12:07:41.193Z,63.65
2023-04-28T12:08:35.239Z,64.45
2023-04-28T12:09:36.223Z,60.42
2023-04-28T12:10:36.202Z,61.71
2023-04-28T12:11:35.198Z,61.39
2023-04-28T12:12:49.918Z,62.20
2023-04-28T12:13:37.199Z,61.55
2023-04-28T12:14:35.169Z,63.16
2023-04-28T12:15:35.211Z,64.13
2023-04-28T12:16:35.193Z,60.10
2023-04-28T12:17:35.307Z,61.07
2023-04-28T12:18:35.333Z,64.13
2023-04-28T12:19:35.147Z,61.23
2023-04-28T12:20:35.194Z,61.71
2023-04-28T12:21:37.466Z,60.75
2023-04-28T12:22:35.114Z,63.97
2023-04-28T12:23:35.101Z,65.10
2023-04-28T12:24:35.108Z,62.04
2023-04-28T12:25:35.268Z,66.55
2023-04-28T12:26:35.080Z,61.71
2023-04-28T12:27:37.312Z,62.68
2023-04-28T12:28:35.156Z,62.84
2023-04-28T12:29:36.672Z,62.68
2023-04-28T12:30:35.081Z,62.84
2023-04-28T12:31:35.074Z,62.68
2023-04-28T12:32:35.049Z,62.36
2023-04-28T12:33:36.583Z,63.00
2023-04-28T12:34:35.007Z,59.14
2023-04-28T12:35:35.013Z,61.23
2023-04-28T12:36:34.996Z,63.16
2023-04-28T12:37:35.003Z,62.84
2023-04-28T12:38:35.026Z,61.23
2023-04-28T12:39:37.071Z,59.62
2023-04-28T12:40:34.969Z,60.42
2023-04-28T12:41:34.954Z,61.71
2023-04-28T12:42:34.965Z,62.68
2023-04-28T12:43:34.950Z,61.71
2023-04-28T12:44:34.935Z,63.49
2023-04-28T12:45:35.961Z,61.55
2023-04-28T12:46:34.951Z,62.20
2023-04-28T12:47:34.948Z,63.00
2023-04-28T12:48:34.996Z,64.13
2023-04-28T12:49:34.974Z,60.59
2023-04-28T12:50:34.925Z,62.68
2023-04-28T12:51:36.585Z,63.81
2023-04-28T12:52:34.875Z,60.26
2023-04-28T12:53:34.855Z,59.94
2023-04-28T12:54:34.856Z,63.16
2023-04-28T12:55:35.710Z,61.55
2023-04-28T12:56:34.841Z,61.39
2023-04-28T12:57:35.252Z,63.16
2023-04-28T12:58:34.823Z,60.91
2023-04-28T12:59:34.823Z,63.97
2023-04-28T13:00:34.798Z,63.49
2023-04-28T13:01:34.846Z,63.65
2023-04-28T13:02:35.208Z,61.71
2023-04-28T13:03:35.940Z,63.00
2023-04-28T13:04:34.938Z,63.16
2023-04-28T13:05:35.609Z,64.94
2023-04-28T13:06:34.764Z,65.90
2023-04-28T13:07:34.754Z,62.20